Swayzee, Indiana
Current Conditions -  °F | °C
As of 3:55 PM on Tuesday 25 Nov 2014 (Local Time) from KMZZ Reporting Station
NA  
Wind Chill: 18°   Ceiling: NA
Heat Index: 28°   Visibility: 7mi
Dew Point: 23°   Wind: 10mph
Humidity: 83%   Direction: 290°WNW
Pressure: 30.15"   Gusts: NA
Location:  40.51°N, 85.83°W
Report Text: KMZZ 252055Z AUTO 29009KT 7SM M02/M05 A3015 RMK AO2 T10251050
Loading
Personal Weather Stations






























Interactive Weather Map New forecast layout! Learn more

10-Day Weather Forecast

Advertisements
Track Severe Weather on mobile